Terminal Aerodrome Forecast
Issued by NWS Duluth, MN

Home | Current Version | Previous Version | Text Only | Print | Product List | Glossary On
Versions: 1 2 3 4 5 6 7 8 9 10 11 12 13 14 15 16 17 18 19 20 21 22 23 24 25 26 27 28 29 30 31
411
FTUS43 KDLH 271509 AAC
TAFDLH
TAF AMD
KDLH 271509Z 2715/2812 31013G22KT P6SM -DZ OVC020
     FM271700 32015G22KT P6SM -SHRA OVC025
     FM272300 34012G19KT P6SM VCSH OVC015
     FM280300 36010KT P6SM SCT008 OVC012=

USA.gov is the U.S. government's official web portal to all federal, state and local government web resources and services.